Iron Mountain, MI

5:06 PM CDT on July 28, 2016 (GMT -0500)
Timberstone | | Change Station

Elev 1158 ft 45.84 °N, 88.08 °W | Updated 13 minutes ago

Clear
Clear
72.3 °F
Feels Like 77 °F
N
2.7
Wind Variable Wind from NW

Today
High -- | Low -- °F
--% Chance of Precip.
Yesterday
High -- | Low -- °F
Precip. -- in
Pressure 30.01 in
Visibility 10.0 miles
Clouds Clear
Heat Index 77 °F
Dew Point 55 °F
Humidity 54%
Rainfall 0.09 in
Snow Depth Not available.
5:31 AM 8:25 PM
Waning Crescent, 28% visible
METAR KIMT 282154Z AUTO 02009KT 10SM CLR 23/11 A3002 RMK AO2 SLP163 T02330106
Pressure 30.01 in
Visibility 10.0 miles
Clouds Clear
Heat Index 77 °F
Dew Point 55 °F
Humidity 54%
Rainfall 0.09 in
Snow Depth Not available.
5:31 AM 8:25 PM
Waning Crescent, 28% visible
METAR KIMT 282154Z AUTO 02009KT 10SM CLR 23/11 A3002 RMK AO2 SLP163 T02330106

10-Day Weather Forecast

Almanac

Astronomy

Jul. 28, 2016 Rise Set
Actual Time
Civil Twilight
Nautical Twilight
Astronomical Twilight
Moon
Length of Visible Light
Length of Day
Tomorrow will be .
, % of the Moon is Illuminated

Today's Extremes

State Highs State Lows

Community

WunderPhotos

Upload Photos

1,928,216 photos uploaded!

WunderBlog® & News

Nearby

Air Quality

  Air Quality AQ Index Pollutant
Not available.

Snow Depth

Station Depth Elevation

Earthquake Activity

City Distance Mag. Time & Date
Minimum magnitude displayed is 2.5.

Coastal Water Temperatures

Place Temperature

Stations

Nearby Weather Stations

Station Location Temp. Windchill Dew Point Humidity Wind Precip. Elev Updated Type
                   

Watches & Warnings

There are currently no watches in effect.